sensor_id;sensor_type;location;lat;lon;timestamp;pressure;altitude;pressure_sealevel;temperature;humidity
25232;BME280;13176;51.140;6.290;2023-01-19T00:01:59;99515.47;;;4.80;78.14
25232;BME280;13176;51.140;6.290;2023-01-19T00:04:26;99525.66;;;4.93;78.10
25232;BME280;13176;51.140;6.290;2023-01-19T00:06:52;99528.06;;;5.10;77.64
25232;BME280;13176;51.140;6.290;2023-01-19T00:09:18;99507.44;;;5.07;76.99
25232;BME280;13176;51.140;6.290;2023-01-19T00:11:45;99494.84;;;4.75;78.95
25232;BME280;13176;51.140;6.290;2023-01-19T00:14:11;99482.09;;;4.59;78.57
25232;BME280;13176;51.140;6.290;2023-01-19T00:16:37;99481.91;;;4.77;78.14
25232;BME280;13176;51.140;6.290;2023-01-19T00:19:04;99549.53;;;5.16;78.09
25232;BME280;13176;51.140;6.290;2023-01-19T00:21:30;99502.59;;;4.75;79.18
25232;BME280;13176;51.140;6.290;2023-01-19T00:23:57;99521.53;;;4.76;79.00
25232;BME280;13176;51.140;6.290;2023-01-19T00:26:23;99541.31;;;4.77;79.11
25232;BME280;13176;51.140;6.290;2023-01-19T00:28:50;99528.28;;;4.89;79.12
25232;BME280;13176;51.140;6.290;2023-01-19T00:31:16;99564.50;;;4.83;78.87
25232;BME280;13176;51.140;6.290;2023-01-19T00:33:45;99534.50;;;4.73;78.85
25232;BME280;13176;51.140;6.290;2023-01-19T00:36:14;99526.59;;;4.85;78.90
25232;BME280;13176;51.140;6.290;2023-01-19T00:38:41;99557.63;;;4.82;78.96
25232;BME280;13176;51.140;6.290;2023-01-19T00:41:08;99537.00;;;4.79;78.76
25232;BME280;13176;51.140;6.290;2023-01-19T00:43:34;99542.13;;;4.83;78.33
25232;BME280;13176;51.140;6.290;2023-01-19T00:46:00;99560.03;;;4.98;79.11
25232;BME280;13176;51.140;6.290;2023-01-19T00:48:27;99543.59;;;5.10;78.06
25232;BME280;13176;51.140;6.290;2023-01-19T00:50:53;99548.03;;;4.96;78.69
25232;BME280;13176;51.140;6.290;2023-01-19T00:53:20;99526.63;;;4.82;78.96
25232;BME280;13176;51.140;6.290;2023-01-19T00:55:46;99548.16;;;4.82;78.82
25232;BME280;13176;51.140;6.290;2023-01-19T00:58:12;99517.97;;;4.86;78.24
25232;BME280;13176;51.140;6.290;2023-01-19T01:00:39;99569.56;;;4.93;78.31
25232;BME280;13176;51.140;6.290;2023-01-19T01:03:05;99527.59;;;4.70;79.05
25232;BME280;13176;51.140;6.290;2023-01-19T01:05:31;99508.00;;;4.50;79.93
25232;BME280;13176;51.140;6.290;2023-01-19T01:07:58;99530.94;;;4.83;78.97
25232;BME280;13176;51.140;6.290;2023-01-19T01:10:27;99563.75;;;4.73;79.80
25232;BME280;13176;51.140;6.290;2023-01-19T01:12:54;99531.97;;;4.67;79.88
25232;BME280;13176;51.140;6.290;2023-01-19T01:15:25;99564.69;;;4.65;80.62
25232;BME280;13176;51.140;6.290;2023-01-19T01:17:52;99548.31;;;4.67;79.98
25232;BME280;13176;51.140;6.290;2023-01-19T01:20:23;99512.53;;;4.27;81.09
25232;BME280;13176;51.140;6.290;2023-01-19T01:22:51;99540.72;;;4.48;80.69
25232;BME280;13176;51.140;6.290;2023-01-19T01:25:20;99559.53;;;4.65;80.61
25232;BME280;13176;51.140;6.290;2023-01-19T01:27:47;99556.16;;;4.57;80.24
25232;BME280;13176;51.140;6.290;2023-01-19T01:30:14;99575.06;;;4.59;81.01
25232;BME280;13176;51.140;6.290;2023-01-19T01:32:41;99561.06;;;4.84;79.72
25232;BME280;13176;51.140;6.290;2023-01-19T01:35:09;99530.44;;;4.42;80.67
25232;BME280;13176;51.140;6.290;2023-01-19T01:37:36;99533.00;;;4.49;80.31
25232;BME280;13176;51.140;6.290;2023-01-19T01:40:04;99563.69;;;4.78;80.36
25232;BME280;13176;51.140;6.290;2023-01-19T01:42:32;99535.50;;;4.57;80.03
25232;BME280;13176;51.140;6.290;2023-01-19T01:45:01;99571.53;;;4.72;80.34
25232;BME280;13176;51.140;6.290;2023-01-19T01:47:41;99540.47;;;4.75;79.41
25232;BME280;13176;51.140;6.290;2023-01-19T01:50:18;99572.19;;;4.92;79.13
25232;BME280;13176;51.140;6.290;2023-01-19T01:52:58;99552.75;;;4.52;80.35
25232;BME280;13176;51.140;6.290;2023-01-19T01:55:38;99561.34;;;4.54;80.38
25232;BME280;13176;51.140;6.290;2023-01-19T01:58:07;99495.94;;;4.52;78.75
25232;BME280;13176;51.140;6.290;2023-01-19T02:00:35;99545.00;;;4.53;79.69
25232;BME280;13176;51.140;6.290;2023-01-19T02:03:22;99550.22;;;4.46;80.11
25232;BME280;13176;51.140;6.290;2023-01-19T02:05:50;99577.44;;;4.80;78.82
25232;BME280;13176;51.140;6.290;2023-01-19T02:08:24;99576.72;;;4.67;79.86
25232;BME280;13176;51.140;6.290;2023-01-19T02:11:12;99503.03;;;4.29;79.32
25232;BME280;13176;51.140;6.290;2023-01-19T02:13:57;99573.09;;;4.85;79.22
25232;BME280;13176;51.140;6.290;2023-01-19T02:16:23;99571.72;;;4.48;80.08
25232;BME280;13176;51.140;6.290;2023-01-19T02:18:50;99507.94;;;4.59;78.22
25232;BME280;13176;51.140;6.290;2023-01-19T02:21:29;99564.69;;;4.65;79.54
25232;BME280;13176;51.140;6.290;2023-01-19T02:23:57;99566.31;;;4.75;79.35
25232;BME280;13176;51.140;6.290;2023-01-19T02:26:29;99566.97;;;4.98;78.33
25232;BME280;13176;51.140;6.290;2023-01-19T02:31:27;99554.44;;;4.56;79.47
25232;BME280;13176;51.140;6.290;2023-01-19T02:33:54;99567.28;;;4.65;79.38
25232;BME280;13176;51.140;6.290;2023-01-19T02:36:24;99562.78;;;4.85;78.79
25232;BME280;13176;51.140;6.290;2023-01-19T02:38:54;99512.22;;;4.58;78.67
25232;BME280;13176;51.140;6.290;2023-01-19T02:41:25;99552.47;;;4.82;78.46
25232;BME280;13176;51.140;6.290;2023-01-19T02:43:54;99571.03;;;5.17;77.60
25232;BME280;13176;51.140;6.290;2023-01-19T02:46:23;99567.66;;;5.12;77.50
25232;BME280;13176;51.140;6.290;2023-01-19T02:48:49;99547.28;;;4.85;78.03
25232;BME280;13176;51.140;6.290;2023-01-19T03:00:00;99558.41;;;4.91;78.33
25232;BME280;13176;51.140;6.290;2023-01-19T03:08:14;99569.53;;;4.98;78.55
25232;BME280;13176;51.140;6.290;2023-01-19T03:15:57;99585.75;;;5.13;77.26
25232;BME280;13176;51.140;6.290;2023-01-19T03:18:30;99530.03;;;4.87;77.60
25232;BME280;13176;51.140;6.290;2023-01-19T03:20:59;99588.47;;;4.98;77.90
25232;BME280;13176;51.140;6.290;2023-01-19T03:23:30;99558.28;;;5.03;77.58
25232;BME280;13176;51.140;6.290;2023-01-19T03:25:58;99543.47;;;5.19;75.96
25232;BME280;13176;51.140;6.290;2023-01-19T03:28:28;99573.06;;;4.91;77.62
25232;BME280;13176;51.140;6.290;2023-01-19T03:30:58;99564.44;;;4.89;77.20
25232;BME280;13176;51.140;6.290;2023-01-19T03:33:29;99529.22;;;4.82;76.95
25232;BME280;13176;51.140;6.290;2023-01-19T03:36:00;99596.00;;;5.21;77.28
25232;BME280;13176;51.140;6.290;2023-01-19T03:38:34;99575.41;;;5.12;76.90
25232;BME280;13176;51.140;6.290;2023-01-19T03:41:03;99598.53;;;5.27;77.09
25232;BME280;13176;51.140;6.290;2023-01-19T03:43:32;99554.09;;;4.92;78.43
25232;BME280;13176;51.140;6.290;2023-01-19T03:46:02;99533.59;;;4.75;78.37
25232;BME280;13176;51.140;6.290;2023-01-19T03:48:31;99579.91;;;4.95;79.18
25232;BME280;13176;51.140;6.290;2023-01-19T03:51:02;99548.03;;;4.94;77.43
25232;BME280;13176;51.140;6.290;2023-01-19T03:53:30;99607.50;;;4.90;78.80
25232;BME280;13176;51.140;6.290;2023-01-19T03:55:56;99534.41;;;4.80;77.86
25232;BME280;13176;51.140;6.290;2023-01-19T03:58:23;99530.16;;;4.73;78.01
25232;BME280;13176;51.140;6.290;2023-01-19T04:00:49;99573.63;;;5.18;77.13
25232;BME280;13176;51.140;6.290;2023-01-19T04:03:16;99568.44;;;5.20;76.94
25232;BME280;13176;51.140;6.290;2023-01-19T04:05:43;99596.13;;;5.07;77.52
25232;BME280;13176;51.140;6.290;2023-01-19T04:08:10;99574.59;;;5.10;77.78
25232;BME280;13176;51.140;6.290;2023-01-19T04:10:37;99600.16;;;5.32;76.96
25232;BME280;13176;51.140;6.290;2023-01-19T04:13:04;99584.84;;;5.16;77.37
25232;BME280;13176;51.140;6.290;2023-01-19T04:15:31;99568.50;;;5.14;77.14
25232;BME280;13176;51.140;6.290;2023-01-19T04:17:58;99567.06;;;4.87;78.13
25232;BME280;13176;51.140;6.290;2023-01-19T04:20:26;99573.84;;;4.97;77.94
25232;BME280;13176;51.140;6.290;2023-01-19T04:22:54;99568.63;;;5.05;77.94
25232;BME280;13176;51.140;6.290;2023-01-19T04:25:24;99592.53;;;5.23;77.93
25232;BME280;13176;51.140;6.290;2023-01-19T04:27:51;99584.31;;;4.84;79.54
25232;BME280;13176;51.140;6.290;2023-01-19T04:30:18;99576.72;;;4.69;81.21
25232;BME280;13176;51.140;6.290;2023-01-19T04:32:44;99586.13;;;4.74;81.33
25232;BME280;13176;51.140;6.290;2023-01-19T04:35:11;99578.28;;;4.85;81.37
25232;BME280;13176;51.140;6.290;2023-01-19T04:37:37;99570.91;;;4.40;84.55
25232;BME280;13176;51.140;6.290;2023-01-19T04:40:04;99595.88;;;4.38;85.34
25232;BME280;13176;51.140;6.290;2023-01-19T04:42:31;99617.28;;;4.52;86.32
25232;BME280;13176;51.140;6.290;2023-01-19T04:44:57;99588.13;;;4.40;85.58
25232;BME280;13176;51.140;6.290;2023-01-19T04:47:24;99585.63;;;4.32;86.62
25232;BME280;13176;51.140;6.290;2023-01-19T04:49:50;99598.47;;;4.37;86.82
25232;BME280;13176;51.140;6.290;2023-01-19T04:52:16;99605.34;;;4.38;86.89
25232;BME280;13176;51.140;6.290;2023-01-19T04:54:43;99608.16;;;4.05;88.21
25232;BME280;13176;51.140;6.290;2023-01-19T04:57:09;99575.59;;;3.87;88.61
25232;BME280;13176;51.140;6.290;2023-01-19T04:59:36;99596.97;;;4.06;89.09
25232;BME280;13176;51.140;6.290;2023-01-19T05:02:02;99622.72;;;4.15;89.55
25232;BME280;13176;51.140;6.290;2023-01-19T05:04:28;99579.03;;;3.83;90.36
25232;BME280;13176;51.140;6.290;2023-01-19T05:06:55;99610.84;;;3.85;90.96
25232;BME280;13176;51.140;6.290;2023-01-19T05:09:23;99582.50;;;3.76;90.64
25232;BME280;13176;51.140;6.290;2023-01-19T05:11:51;99635.66;;;4.07;90.18
25232;BME280;13176;51.140;6.290;2023-01-19T05:14:17;99529.31;;;3.63;89.79
25232;BME280;13176;51.140;6.290;2023-01-19T05:16:44;99572.31;;;3.52;91.16
25232;BME280;13176;51.140;6.290;2023-01-19T05:19:10;99531.06;;;3.55;89.97
25232;BME280;13176;51.140;6.290;2023-01-19T05:21:37;99592.81;;;3.81;90.29
25232;BME280;13176;51.140;6.290;2023-01-19T05:24:04;99592.06;;;3.59;91.92
25232;BME280;13176;51.140;6.290;2023-01-19T05:26:30;99639.25;;;3.73;92.93
25232;BME280;13176;51.140;6.290;2023-01-19T05:28:56;99614.28;;;3.81;91.35
25232;BME280;13176;51.140;6.290;2023-01-19T05:31:23;99608.28;;;3.82;91.52
25232;BME280;13176;51.140;6.290;2023-01-19T05:33:49;99649.41;;;4.06;91.08
25232;BME280;13176;51.140;6.290;2023-01-19T05:36:16;99646.13;;;3.71;93.22
25232;BME280;13176;51.140;6.290;2023-01-19T05:38:42;99670.19;;;3.76;93.54
25232;BME280;13176;51.140;6.290;2023-01-19T05:41:09;99568.91;;;3.41;92.74
25232;BME280;13176;51.140;6.290;2023-01-19T05:43:36;99650.41;;;3.78;92.73
25232;BME280;13176;51.140;6.290;2023-01-19T05:46:03;99627.22;;;3.75;92.05
25232;BME280;13176;51.140;6.290;2023-01-19T05:48:30;99635.81;;;3.74;92.92
25232;BME280;13176;51.140;6.290;2023-01-19T05:51:00;99604.97;;;3.56;93.28
25232;BME280;13176;51.140;6.290;2023-01-19T05:53:27;99644.41;;;3.76;93.20
25232;BME280;13176;51.140;6.290;2023-01-19T05:56:01;99616.97;;;3.60;93.30
25232;BME280;13176;51.140;6.290;2023-01-19T05:58:28;99580.09;;;3.42;92.67
25232;BME280;13176;51.140;6.290;2023-01-19T06:00:54;99550.97;;;3.24;93.07
25232;BME280;13176;51.140;6.290;2023-01-19T06:03:21;99649.59;;;3.67;93.54
25232;BME280;13176;51.140;6.290;2023-01-19T06:05:47;99650.38;;;3.90;92.55
25232;BME280;13176;51.140;6.290;2023-01-19T06:08:14;99631.47;;;3.84;92.59
25232;BME280;13176;51.140;6.290;2023-01-19T06:10:40;99635.72;;;3.95;92.29
25232;BME280;13176;51.140;6.290;2023-01-19T06:13:07;99678.66;;;4.07;92.34
25232;BME280;13176;51.140;6.290;2023-01-19T06:15:35;99665.75;;;4.07;92.03
25232;BME280;13176;51.140;6.290;2023-01-19T06:18:02;99619.53;;;3.65;92.92
25232;BME280;13176;51.140;6.290;2023-01-19T06:20:29;99630.59;;;3.86;92.15
25232;BME280;13176;51.140;6.290;2023-01-19T06:22:56;99675.19;;;4.12;92.03
25232;BME280;13176;51.140;6.290;2023-01-19T06:25:22;99476.25;;;3.21;90.77
25232;BME280;13176;51.140;6.290;2023-01-19T06:27:50;99659.69;;;4.15;90.67
25232;BME280;13176;51.140;6.290;2023-01-19T06:30:17;99664.91;;;4.03;93.03
25232;BME280;13176;51.140;6.290;2023-01-19T06:32:44;99549.25;;;3.26;93.07
25232;BME280;13176;51.140;6.290;2023-01-19T06:35:11;99658.94;;;3.95;92.34
25232;BME280;13176;51.140;6.290;2023-01-19T06:37:40;99661.41;;;4.13;91.67
25232;BME280;13176;51.140;6.290;2023-01-19T06:40:07;99538.88;;;3.37;91.58
25232;BME280;13176;51.140;6.290;2023-01-19T06:42:34;99656.28;;;4.07;91.83
25232;BME280;13176;51.140;6.290;2023-01-19T06:45:01;99687.25;;;4.10;93.63
25232;BME280;13176;51.140;6.290;2023-01-19T06:47:27;99670.19;;;3.76;94.80
25232;BME280;13176;51.140;6.290;2023-01-19T06:49:53;99650.34;;;3.93;92.92
25232;BME280;13176;51.140;6.290;2023-01-19T06:52:20;99694.22;;;3.90;92.86
25232;BME280;13176;51.140;6.290;2023-01-19T06:54:47;99477.28;;;2.81;93.21
25232;BME280;13176;51.140;6.290;2023-01-19T06:57:15;99687.38;;;3.71;94.38
25232;BME280;13176;51.140;6.290;2023-01-19T06:59:41;99670.16;;;3.82;93.75
25232;BME280;13176;51.140;6.290;2023-01-19T07:02:08;99692.47;;;3.98;93.26
25232;BME280;13176;51.140;6.290;2023-01-19T07:04:54;99702.00;;;3.77;94.50
25232;BME280;13176;51.140;6.290;2023-01-19T07:07:21;99685.66;;;3.82;93.73
25232;BME280;13176;51.140;6.290;2023-01-19T07:09:47;99645.28;;;3.77;93.36
25232;BME280;13176;51.140;6.290;2023-01-19T07:12:13;99690.78;;;3.88;93.54
25232;BME280;13176;51.140;6.290;2023-01-19T07:14:40;99701.88;;;4.10;92.93
25232;BME280;13176;51.140;6.290;2023-01-19T07:17:07;99713.06;;;4.04;93.29
25232;BME280;13176;51.140;6.290;2023-01-19T07:19:37;99611.91;;;3.31;94.29
25232;BME280;13176;51.140;6.290;2023-01-19T07:22:04;99680.47;;;3.88;93.64
25232;BME280;13176;51.140;6.290;2023-01-19T07:24:30;99701.00;;;4.06;93.11
25232;BME280;13176;51.140;6.290;2023-01-19T07:26:58;99722.50;;;4.05;92.65
25232;BME280;13176;51.140;6.290;2023-01-19T07:29:25;99705.38;;;3.92;93.45
25232;BME280;13176;51.140;6.290;2023-01-19T07:31:51;99747.38;;;4.27;92.88
25232;BME280;13176;51.140;6.290;2023-01-19T07:34:20;99669.34;;;3.71;93.14
25232;BME280;13176;51.140;6.290;2023-01-19T07:36:46;99692.47;;;3.98;92.57
25232;BME280;13176;51.140;6.290;2023-01-19T07:39:13;99735.41;;;4.10;93.54
25232;BME280;13176;51.140;6.290;2023-01-19T07:41:39;99701.09;;;3.88;93.42
25232;BME280;13176;51.140;6.290;2023-01-19T07:44:06;99643.63;;;3.46;92.75
25232;BME280;13176;51.140;6.290;2023-01-19T07:46:33;99764.66;;;4.04;93.56
25232;BME280;13176;51.140;6.290;2023-01-19T07:49:00;99744.03;;;4.04;92.96
25232;BME280;13176;51.140;6.290;2023-01-19T07:51:27;99779.19;;;4.35;92.56
25232;BME280;13176;51.140;6.290;2023-01-19T07:53:54;99687.41;;;3.70;92.53
25232;BME280;13176;51.140;6.290;2023-01-19T07:56:20;99772.34;;;4.21;92.42
25232;BME280;13176;51.140;6.290;2023-01-19T07:58:48;99615.38;;;3.21;93.03
25232;BME280;13176;51.140;6.290;2023-01-19T08:01:17;99794.75;;;4.11;93.56
25232;BME280;13176;51.140;6.290;2023-01-19T08:03:46;99803.19;;;4.52;91.82
25232;BME280;13176;51.140;6.290;2023-01-19T08:06:20;99792.06;;;4.41;91.71
25232;BME280;13176;51.140;6.290;2023-01-19T08:08:47;99787.00;;;4.14;92.52
25232;BME280;13176;51.140;6.290;2023-01-19T08:11:13;99735.53;;;3.69;94.11
25232;BME280;13176;51.140;6.290;2023-01-19T08:13:40;99680.59;;;3.52;94.01
25232;BME280;13176;51.140;6.290;2023-01-19T08:16:07;99640.25;;;3.38;92.93
25232;BME280;13176;51.140;6.290;2023-01-19T08:18:33;99749.25;;;3.86;93.95
25232;BME280;13176;51.140;6.290;2023-01-19T08:21:01;99689.13;;;3.66;92.61
25232;BME280;13176;51.140;6.290;2023-01-19T08:23:27;99775.03;;;3.95;93.33
25232;BME280;13176;51.140;6.290;2023-01-19T08:25:54;99594.78;;;3.06;92.90
25232;BME280;13176;51.140;6.290;2023-01-19T08:28:22;99778.44;;;3.96;93.88
25232;BME280;13176;51.140;6.290;2023-01-19T08:30:48;99728.69;;;3.59;94.08
25232;BME280;13176;51.140;6.290;2023-01-19T08:33:22;99740.69;;;3.80;94.07
25232;BME280;13176;51.140;6.290;2023-01-19T08:35:52;99776.69;;;4.08;92.73
25232;BME280;13176;51.140;6.290;2023-01-19T08:38:19;99826.53;;;4.28;93.53
25232;BME280;13176;51.140;6.290;2023-01-19T08:40:47;99633.41;;;3.10;93.57
25232;BME280;13176;51.140;6.290;2023-01-19T08:43:15;99760.41;;;3.93;93.15
25232;BME280;13176;51.140;6.290;2023-01-19T08:45:45;99810.22;;;4.20;93.26
25232;BME280;13176;51.140;6.290;2023-01-19T08:48:16;99687.44;;;3.59;91.97
25232;BME280;13176;51.140;6.290;2023-01-19T08:50:48;99836.03;;;4.20;91.86
25232;BME280;13176;51.140;6.290;2023-01-19T08:53:15;99857.44;;;4.46;92.22
25232;BME280;13176;51.140;6.290;2023-01-19T08:55:42;99743.28;;;3.77;91.94
25232;BME280;13176;51.140;6.290;2023-01-19T08:58:09;99868.66;;;4.39;92.22
25232;BME280;13176;51.140;6.290;2023-01-19T09:00:43;99671.16;;;3.33;92.38
25232;BME280;13176;51.140;6.290;2023-01-19T09:03:10;99677.16;;;3.53;91.29
25232;BME280;13176;51.140;6.290;2023-01-19T09:05:39;99757.00;;;3.82;92.18
25232;BME280;13176;51.140;6.290;2023-01-19T09:08:15;99762.94;;;4.03;91.71
25232;BME280;13176;51.140;6.290;2023-01-19T09:10:45;99592.25;;;2.98;92.03
25232;BME280;13176;51.140;6.290;2023-01-19T09:13:13;99750.09;;;3.88;92.12
25232;BME280;13176;51.140;6.290;2023-01-19T09:15:40;99746.66;;;3.86;91.83
25232;BME280;13176;51.140;6.290;2023-01-19T09:18:11;99860.84;;;4.57;91.46
25232;BME280;13176;51.140;6.290;2023-01-19T09:20:43;99764.72;;;3.83;92.52
25232;BME280;13176;51.140;6.290;2023-01-19T09:23:17;99778.47;;;3.97;92.08
25232;BME280;13176;51.140;6.290;2023-01-19T09:25:44;99884.94;;;4.68;92.40
25232;BME280;13176;51.140;6.290;2023-01-19T09:28:13;99751.84;;;3.77;93.18
25232;BME280;13176;51.140;6.290;2023-01-19T09:30:41;99828.22;;;4.38;92.20
25232;BME280;13176;51.140;6.290;2023-01-19T09:33:13;99785.31;;;4.04;92.61
25232;BME280;13176;51.140;6.290;2023-01-19T09:35:41;99895.22;;;4.74;92.74
25232;BME280;13176;51.140;6.290;2023-01-19T09:38:08;99884.88;;;4.77;91.79
25232;BME280;13176;51.140;6.290;2023-01-19T09:40:47;99800.75;;;4.22;92.37
25232;BME280;13176;51.140;6.290;2023-01-19T09:43:40;99904.72;;;4.70;93.73
25232;BME280;13176;51.140;6.290;2023-01-19T09:48:54;99872.91;;;4.55;92.75
25232;BME280;13176;51.140;6.290;2023-01-19T09:51:32;99913.31;;;4.69;92.83
25232;BME280;13176;51.140;6.290;2023-01-19T09:54:17;99815.41;;;4.19;92.53
25232;BME280;13176;51.140;6.290;2023-01-19T09:56:46;99914.22;;;4.64;94.24
25232;BME280;13176;51.140;6.290;2023-01-19T09:59:30;99914.13;;;4.88;93.02
25232;BME280;13176;51.140;6.290;2023-01-19T10:02:18;99903.81;;;4.76;92.67
25232;BME280;13176;51.140;6.290;2023-01-19T10:05:02;99896.91;;;4.81;92.12
25232;BME280;13176;51.140;6.290;2023-01-19T10:10:08;99886.59;;;4.78;91.92
25232;BME280;13176;51.140;6.290;2023-01-19T10:18:15;99930.41;;;5.03;92.03
25232;BME280;13176;51.140;6.290;2023-01-19T10:20:51;99903.88;;;4.64;93.17
25232;BME280;13176;51.140;6.290;2023-01-19T10:23:50;99931.19;;;5.22;90.98
25232;BME280;13176;51.140;6.290;2023-01-19T10:26:23;99941.69;;;4.89;92.82
25232;BME280;13176;51.140;6.290;2023-01-19T10:28:53;99926.16;;;4.92;91.72
25232;BME280;13176;51.140;6.290;2023-01-19T10:31:22;99910.69;;;4.80;92.43
25232;BME280;13176;51.140;6.290;2023-01-19T10:33:50;99897.81;;;4.75;92.36
25232;BME280;13176;51.140;6.290;2023-01-19T10:36:20;99945.88;;;5.11;92.24
25232;BME280;13176;51.140;6.290;2023-01-19T10:38:47;99917.41;;;5.20;90.49
25232;BME280;13176;51.140;6.290;2023-01-19T10:41:27;99935.53;;;5.14;90.90
25232;BME280;13176;51.140;6.290;2023-01-19T10:44:01;99912.31;;;5.08;91.36
25232;BME280;13176;51.140;6.290;2023-01-19T10:46:37;99948.38;;;5.35;90.37
25232;BME280;13176;51.140;6.290;2023-01-19T10:49:04;99812.72;;;4.38;91.11
25232;BME280;13176;51.140;6.290;2023-01-19T10:51:31;99880.59;;;4.73;92.24
25232;BME280;13176;51.140;6.290;2023-01-19T10:54:00;99879.66;;;4.90;91.14
25232;BME280;13176;51.140;6.290;2023-01-19T10:56:30;99908.00;;;5.08;91.29
25232;BME280;13176;51.140;6.290;2023-01-19T10:58:59;99912.34;;;5.02;92.01
25232;BME280;13176;51.140;6.290;2023-01-19T11:01:27;99927.78;;;5.11;90.80
25232;BME280;13176;51.140;6.290;2023-01-19T11:03:55;99940.69;;;5.21;91.18
25232;BME280;13176;51.140;6.290;2023-01-19T11:06:31;99926.81;;;5.36;89.70
25232;BME280;13176;51.140;6.290;2023-01-19T11:09:16;99951.66;;;5.62;89.67
25232;BME280;13176;51.140;6.290;2023-01-19T11:11:51;99931.09;;;5.40;90.16
25232;BME280;13176;51.140;6.290;2023-01-19T11:14:22;99947.41;;;5.49;89.96
25232;BME280;13176;51.140;6.290;2023-01-19T11:16:54;99958.69;;;5.33;90.94
25232;BME280;13176;51.140;6.290;2023-01-19T11:19:29;99941.44;;;5.40;90.33
25232;BME280;13176;51.140;6.290;2023-01-19T11:22:14;99925.84;;;5.49;89.39
25232;BME280;13176;51.140;6.290;2023-01-19T11:24:47;99924.94;;;5.63;88.50
25232;BME280;13176;51.140;6.290;2023-01-19T11:27:19;99962.75;;;5.85;88.85
25232;BME280;13176;51.140;6.290;2023-01-19T11:30:37;99932.53;;;5.85;87.64
25232;BME280;13176;51.140;6.290;2023-01-19T11:32:38;99937.78;;;5.79;88.12
25232;BME280;13176;51.140;6.290;2023-01-19T11:38:06;99941.97;;;5.92;88.82
25232;BME280;13176;51.140;6.290;2023-01-19T11:40:33;99863.63;;;5.69;87.04
25232;BME280;13176;51.140;6.290;2023-01-19T11:43:00;99880.03;;;5.67;87.36
25232;BME280;13176;51.140;6.290;2023-01-19T11:45:27;99948.06;;;5.85;88.15
25232;BME280;13176;51.140;6.290;2023-01-19T11:47:54;99920.56;;;5.69;87.78
25232;BME280;13176;51.140;6.290;2023-01-19T11:50:32;99951.44;;;5.96;87.79
25232;BME280;13176;51.140;6.290;2023-01-19T11:53:16;99941.84;;;6.07;86.71
25232;BME280;13176;51.140;6.290;2023-01-19T11:58:45;99928.03;;;6.07;86.61
25232;BME280;13176;51.140;6.290;2023-01-19T12:01:24;99913.34;;;6.10;86.58
25232;BME280;13176;51.140;6.290;2023-01-19T12:03:58;99955.34;;;6.41;86.41
25232;BME280;13176;51.140;6.290;2023-01-19T12:06:33;99891.03;;;5.97;87.19
25232;BME280;13176;51.140;6.290;2023-01-19T12:09:10;99918.41;;;6.22;86.31
25232;BME280;13176;51.140;6.290;2023-01-19T12:11:45;99913.50;;;5.92;87.30
25232;BME280;13176;51.140;6.290;2023-01-19T12:14:27;99932.38;;;6.02;86.61
25232;BME280;13176;51.140;6.290;2023-01-19T12:16:59;99896.50;;;5.56;87.92
25232;BME280;13176;51.140;6.290;2023-01-19T12:19:41;99944.78;;;5.57;89.79
25232;BME280;13176;51.140;6.290;2023-01-19T12:22:14;99908.69;;;5.39;89.55
25232;BME280;13176;51.140;6.290;2023-01-19T12:24:49;99945.63;;;5.63;90.17
25232;BME280;13176;51.140;6.290;2023-01-19T12:27:39;99943.66;;;5.98;88.21
25232;BME280;13176;51.140;6.290;2023-01-19T12:30:24;99939.06;;;6.28;86.65
25232;BME280;13176;51.140;6.290;2023-01-19T12:32:51;99919.63;;;5.82;87.69
25232;BME280;13176;51.140;6.290;2023-01-19T12:35:52;99939.91;;;6.33;86.57
25232;BME280;13176;51.140;6.290;2023-01-19T12:38:41;99944.88;;;6.53;85.55
25232;BME280;13176;51.140;6.290;2023-01-19T12:41:24;99933.00;;;6.32;85.86
25232;BME280;13176;51.140;6.290;2023-01-19T12:46:57;99946.88;;;6.27;85.94
25232;BME280;13176;51.140;6.290;2023-01-19T12:49:32;99942.50;;;6.30;86.80
25232;BME280;13176;51.140;6.290;2023-01-19T12:52:27;99915.91;;;6.16;86.42
25232;BME280;13176;51.140;6.290;2023-01-19T12:57:48;99950.88;;;6.56;86.20
25232;BME280;13176;51.140;6.290;2023-01-19T13:02:55;99952.69;;;6.51;86.06
25232;BME280;13176;51.140;6.290;2023-01-19T13:13:23;99966.03;;;6.02;87.05
25232;BME280;13176;51.140;6.290;2023-01-19T13:15:51;99964.50;;;5.81;87.78
25232;BME280;13176;51.140;6.290;2023-01-19T13:18:26;99936.06;;;5.72;86.88
25232;BME280;13176;51.140;6.290;2023-01-19T13:20:59;99958.47;;;5.73;87.63
25232;BME280;13176;51.140;6.290;2023-01-19T13:23:40;99968.81;;;5.82;87.58
25232;BME280;13176;51.140;6.290;2023-01-19T13:26:19;99948.16;;;5.67;87.82
25232;BME280;13176;51.140;6.290;2023-01-19T13:28:51;99848.56;;;5.07;87.36
25232;BME280;13176;51.140;6.290;2023-01-19T13:31:18;99972.19;;;5.90;86.94
25232;BME280;13176;51.140;6.290;2023-01-19T13:33:56;99937.66;;;5.91;86.10
25232;BME280;13176;51.140;6.290;2023-01-19T13:36:37;99970.28;;;6.16;85.62
25232;BME280;13176;51.140;6.290;2023-01-19T13:39:12;99929.06;;;5.86;85.47
25232;BME280;13176;51.140;6.290;2023-01-19T13:41:44;99942.84;;;5.93;85.90
25232;BME280;13176;51.140;6.290;2023-01-19T13:44:17;99977.34;;;5.93;86.39
25232;BME280;13176;51.140;6.290;2023-01-19T13:46:45;99924.97;;;5.57;86.70
25232;BME280;13176;51.140;6.290;2023-01-19T13:49:17;99932.63;;;5.70;86.54
25232;BME280;13176;51.140;6.290;2023-01-19T13:51:45;99957.59;;;5.76;85.94
25232;BME280;13176;51.140;6.290;2023-01-19T13:54:28;99881.00;;;5.50;85.50
25232;BME280;13176;51.140;6.290;2023-01-19T13:56:54;99982.38;;;6.14;85.01
25232;BME280;13176;51.140;6.290;2023-01-19T13:59:21;99913.75;;;5.54;85.17
25232;BME280;13176;51.140;6.290;2023-01-19T14:01:47;99870.03;;;5.18;86.27
25232;BME280;13176;51.140;6.290;2023-01-19T14:04:27;99986.03;;;5.83;85.94
25232;BME280;13176;51.140;6.290;2023-01-19T14:07:05;99983.25;;;6.09;84.91
25232;BME280;13176;51.140;6.290;2023-01-19T14:09:37;99952.41;;;5.82;85.33
25232;BME280;13176;51.140;6.290;2023-01-19T14:12:13;99991.03;;;6.07;85.49
25232;BME280;13176;51.140;6.290;2023-01-19T14:14:41;99963.66;;;5.79;85.84
25232;BME280;13176;51.140;6.290;2023-01-19T14:17:22;99997.22;;;5.88;86.03
25232;BME280;13176;51.140;6.290;2023-01-19T14:19:51;99949.00;;;5.68;85.40
25232;BME280;13176;51.140;6.290;2023-01-19T14:22:18;99958.50;;;5.70;85.55